createdAt,value
2022-12-18T00:01:18.912Z,9.50
2022-12-18T00:03:48.511Z,9.50
2022-12-18T00:06:16.448Z,9.50
2022-12-18T00:08:44.314Z,9.50
2022-12-18T00:11:16.205Z,9.50
2022-12-18T00:13:44.669Z,9.40
2022-12-18T00:16:16.527Z,9.40
2022-12-18T00:18:45.464Z,9.40
2022-12-18T00:21:15.206Z,9.50
2022-12-18T00:23:44.934Z,9.40
2022-12-18T00:26:24.091Z,9.50
2022-12-18T00:28:52.882Z,9.50
2022-12-18T00:31:21.825Z,9.50
2022-12-18T00:33:54.125Z,9.40
2022-12-18T00:36:27.592Z,9.50
2022-12-18T00:38:56.478Z,9.40
2022-12-18T00:41:38.431Z,9.40
2022-12-18T00:44:06.767Z,9.40
2022-12-18T00:46:34.780Z,9.40
2022-12-18T00:49:02.720Z,9.40
2022-12-18T00:51:32.574Z,9.40
2022-12-18T00:54:00.655Z,9.40
2022-12-18T00:56:29.087Z,9.30
2022-12-18T00:58:57.044Z,9.30
2022-12-18T01:01:25.559Z,9.30
2022-12-18T01:03:53.695Z,9.30
2022-12-18T01:06:21.628Z,9.30
2022-12-18T01:08:50.847Z,9.30
2022-12-18T01:11:19.884Z,9.30
2022-12-18T01:13:48.097Z,9.20
2022-12-18T01:16:17.107Z,9.20
2022-12-18T01:18:49.219Z,9.20
2022-12-18T01:21:18.682Z,9.20
2022-12-18T01:23:58.307Z,9.20
2022-12-18T01:26:26.836Z,9.20
2022-12-18T01:28:58.695Z,9.10
2022-12-18T01:31:28.308Z,9.10
2022-12-18T01:33:56.724Z,9.10
2022-12-18T01:36:25.278Z,9.00
2022-12-18T01:38:56.172Z,9.00
2022-12-18T01:41:25.155Z,9.00
2022-12-18T01:43:55.099Z,9.00
2022-12-18T01:46:23.756Z,9.00
2022-12-18T01:48:52.989Z,8.90
2022-12-18T01:51:20.868Z,8.90
2022-12-18T01:53:48.905Z,8.90
2022-12-18T01:56:19.097Z,8.90
2022-12-18T01:58:53.123Z,8.90
2022-12-18T02:01:21.569Z,8.90
2022-12-18T02:03:50.112Z,8.90
2022-12-18T02:06:19.050Z,8.80
2022-12-18T02:08:53.333Z,8.80
2022-12-18T02:11:25.989Z,8.90
2022-12-18T02:13:58.402Z,8.80
2022-12-18T02:16:27.543Z,8.80
2022-12-18T02:18:58.707Z,8.80
2022-12-18T02:21:30.838Z,8.80
2022-12-18T02:23:59.630Z,8.80
2022-12-18T02:26:31.220Z,8.70
2022-12-18T02:29:01.687Z,8.70
2022-12-18T02:31:30.652Z,8.70
2022-12-18T02:33:59.756Z,8.70
2022-12-18T02:36:27.986Z,8.70
2022-12-18T02:38:55.793Z,8.80
2022-12-18T02:41:26.336Z,8.70
2022-12-18T02:43:58.822Z,8.70
2022-12-18T02:46:35.054Z,8.70
2022-12-18T02:49:08.402Z,8.70
2022-12-18T02:51:40.342Z,8.70
2022-12-18T02:54:10.737Z,8.60
2022-12-18T02:56:40.958Z,8.60
2022-12-18T02:59:11.518Z,8.60
2022-12-18T03:01:43.200Z,8.60
2022-12-18T03:04:13.769Z,8.60
2022-12-18T03:06:42.900Z,8.60
2022-12-18T03:09:12.819Z,8.50
2022-12-18T03:12:01.665Z,8.60
2022-12-18T03:14:32.003Z,8.50
2022-12-18T03:17:01.986Z,8.50
2022-12-18T03:19:30.437Z,8.50
2022-12-18T03:21:58.886Z,8.50
2022-12-18T03:24:27.390Z,8.50
2022-12-18T03:26:57.231Z,8.50
2022-12-18T03:29:26.812Z,8.50
2022-12-18T03:31:59.451Z,8.50
2022-12-18T03:34:28.948Z,8.50
2022-12-18T03:36:57.304Z,8.40
2022-12-18T03:39:25.503Z,8.50
2022-12-18T03:41:55.231Z,8.50
2022-12-18T03:44:25.508Z,8.50
2022-12-18T03:46:58.380Z,8.40
2022-12-18T03:49:27.736Z,8.40
2022-12-18T03:51:56.674Z,8.40
2022-12-18T03:54:24.454Z,8.40
2022-12-18T03:56:56.105Z,8.40
2022-12-18T03:59:23.956Z,8.40
2022-12-18T04:01:52.655Z,8.40
2022-12-18T04:04:21.967Z,8.40
2022-12-18T04:06:50.008Z,8.40
2022-12-18T04:09:17.874Z,8.40
2022-12-18T04:11:45.681Z,8.40
2022-12-18T04:14:17.699Z,8.30
2022-12-18T04:16:46.303Z,8.30
2022-12-18T04:19:14.639Z,8.30
2022-12-18T04:21:44.021Z,8.30
2022-12-18T04:24:12.471Z,8.30
2022-12-18T04:26:40.407Z,8.20
2022-12-18T04:29:08.705Z,8.20
2022-12-18T04:31:36.675Z,8.30
2022-12-18T04:34:05.191Z,8.20
2022-12-18T04:36:33.035Z,8.20
2022-12-18T04:39:02.323Z,8.20
2022-12-18T04:41:30.183Z,8.20
2022-12-18T04:43:58.067Z,8.20
2022-12-18T04:46:26.235Z,8.10
2022-12-18T04:48:53.969Z,8.10
2022-12-18T04:51:26.294Z,8.10
2022-12-18T04:53:54.777Z,8.10
2022-12-18T04:56:24.630Z,8.10
2022-12-18T04:58:52.601Z,8.10
2022-12-18T05:01:20.981Z,8.10
2022-12-18T05:03:49.000Z,8.10
2022-12-18T05:06:16.829Z,8.10
2022-12-18T05:08:44.736Z,8.00
2022-12-18T05:11:16.366Z,8.10
2022-12-18T05:13:46.041Z,8.10
2022-12-18T05:16:13.992Z,8.10
2022-12-18T05:18:42.283Z,8.00
2022-12-18T05:21:10.208Z,8.00
2022-12-18T05:23:39.166Z,8.00
2022-12-18T05:26:08.711Z,8.00
2022-12-18T05:28:37.633Z,8.00
2022-12-18T05:31:07.577Z,8.00
2022-12-18T05:33:36.135Z,7.90
2022-12-18T05:36:06.058Z,8.00
2022-12-18T05:38:34.484Z,7.90
2022-12-18T05:41:02.274Z,7.90
2022-12-18T05:43:30.043Z,7.90
2022-12-18T05:45:58.572Z,8.00
2022-12-18T05:48:27.894Z,7.90
2022-12-18T05:50:55.815Z,7.90
2022-12-18T05:53:24.099Z,7.90
2022-12-18T05:55:51.954Z,7.90
2022-12-18T05:58:20.243Z,7.90
2022-12-18T06:00:48.175Z,7.90
2022-12-18T06:03:16.730Z,7.90
2022-12-18T06:05:46.546Z,7.90
2022-12-18T06:08:14.381Z,7.90
2022-12-18T06:10:42.460Z,7.80
2022-12-18T06:13:10.297Z,7.80
2022-12-18T06:15:39.195Z,7.80
2022-12-18T06:18:07.049Z,7.80
2022-12-18T06:20:37.883Z,7.80
2022-12-18T06:23:07.103Z,7.80
2022-12-18T06:25:35.582Z,7.80
2022-12-18T06:28:03.501Z,7.80
2022-12-18T06:30:31.818Z,7.80
2022-12-18T06:32:59.702Z,7.80
2022-12-18T06:35:28.073Z,7.80
2022-12-18T06:37:56.004Z,7.80
2022-12-18T06:40:25.720Z,7.80
2022-12-18T06:42:53.731Z,7.80
2022-12-18T06:45:23.239Z,7.80
2022-12-18T06:47:50.992Z,7.70
2022-12-18T06:50:18.834Z,7.70
2022-12-18T06:52:47.028Z,7.70
2022-12-18T06:55:14.784Z,7.70
2022-12-18T06:57:44.344Z,7.70
2022-12-18T07:00:12.961Z,7.70
2022-12-18T07:02:41.913Z,7.60
2022-12-18T07:05:11.111Z,7.70
2022-12-18T07:07:39.418Z,7.70
2022-12-18T07:10:07.714Z,7.60
2022-12-18T07:12:35.858Z,7.70
2022-12-18T07:15:05.761Z,7.60
2022-12-18T07:17:33.925Z,7.60
2022-12-18T07:20:01.950Z,7.60
2022-12-18T07:22:30.227Z,7.60
2022-12-18T07:24:58.113Z,7.60
2022-12-18T07:27:26.290Z,7.60
2022-12-18T07:29:54.130Z,7.60
2022-12-18T07:32:23.709Z,7.60
2022-12-18T07:34:51.474Z,7.60
2022-12-18T07:37:19.693Z,7.60
2022-12-18T07:39:47.582Z,7.60
2022-12-18T07:42:33.441Z,7.60
2022-12-18T07:45:02.018Z,7.60
2022-12-18T07:47:36.009Z,7.60
2022-12-18T07:50:03.984Z,7.60
2022-12-18T07:52:31.669Z,7.60
2022-12-18T07:55:00.400Z,7.60
2022-12-18T07:57:49.553Z,7.60
2022-12-18T08:00:17.483Z,7.60
2022-12-18T08:02:47.340Z,7.60
2022-12-18T08:05:16.704Z,7.70
2022-12-18T08:07:44.988Z,7.70
2022-12-18T08:10:12.805Z,7.70
2022-12-18T08:12:40.712Z,7.70
2022-12-18T08:15:09.888Z,7.70
2022-12-18T08:17:37.683Z,7.70
2022-12-18T08:20:08.047Z,7.70
2022-12-18T08:22:36.462Z,7.80
2022-12-18T08:25:06.473Z,7.80
2022-12-18T08:27:34.545Z,7.80
2022-12-18T08:30:02.898Z,7.80
2022-12-18T08:32:30.763Z,7.80
2022-12-18T08:34:58.752Z,7.90
2022-12-18T08:37:28.071Z,7.90
2022-12-18T08:39:56.420Z,8.00
2022-12-18T08:42:41.835Z,8.00
2022-12-18T08:45:10.735Z,8.10
2022-12-18T08:47:38.616Z,8.10
2022-12-18T08:50:07.347Z,8.20
2022-12-18T08:52:36.766Z,8.30
2022-12-18T08:55:08.442Z,8.40
2022-12-18T08:57:36.384Z,8.50
2022-12-18T09:00:04.896Z,8.60
2022-12-18T09:02:33.138Z,8.60
2022-12-18T09:05:02.649Z,8.70
2022-12-18T09:07:30.493Z,8.70
2022-12-18T09:09:59.806Z,8.90
2022-12-18T09:12:27.968Z,8.90
2022-12-18T09:14:57.786Z,9.00
2022-12-18T09:17:27.739Z,9.10
2022-12-18T09:19:55.918Z,9.10
2022-12-18T09:22:24.285Z,9.20
2022-12-18T09:24:52.344Z,9.20
2022-12-18T09:27:22.357Z,9.20
2022-12-18T09:29:50.511Z,9.30
2022-12-18T09:32:22.343Z,9.30
2022-12-18T09:34:50.700Z,9.30
2022-12-18T09:37:19.094Z,9.30
2022-12-18T09:39:47.014Z,9.30
2022-12-18T09:42:19.894Z,9.30
2022-12-18T09:44:51.509Z,9.40
2022-12-18T09:47:20.767Z,9.40
2022-12-18T09:49:49.495Z,9.40
2022-12-18T09:52:19.810Z,9.50
2022-12-18T09:54:50.270Z,9.50
2022-12-18T09:57:19.425Z,9.60
2022-12-18T09:59:51.265Z,9.70
2022-12-18T10:02:20.750Z,9.90
2022-12-18T10:04:52.996Z,10.00
2022-12-18T10:07:23.428Z,10.10
2022-12-18T10:09:53.669Z,10.30
2022-12-18T10:12:23.482Z,10.40
2022-12-18T10:14:53.904Z,10.60
2022-12-18T10:17:27.029Z,10.60
2022-12-18T10:19:57.345Z,10.70
2022-12-18T10:22:33.010Z,10.80
2022-12-18T10:25:03.974Z,10.90
2022-12-18T10:27:31.912Z,10.90
2022-12-18T10:30:02.954Z,11.00
2022-12-18T10:32:32.271Z,11.00
2022-12-18T10:35:01.290Z,11.00
2022-12-18T10:37:30.276Z,11.00
2022-12-18T10:40:11.024Z,11.00
2022-12-18T10:42:40.708Z,11.00
2022-12-18T10:45:14.185Z,11.10
2022-12-18T10:47:44.661Z,11.20
2022-12-18T10:50:20.814Z,11.30
2022-12-18T10:52:55.766Z,11.30
2022-12-18T10:55:23.480Z,11.40
2022-12-18T10:57:51.664Z,11.60
2022-12-18T11:00:26.062Z,11.80
2022-12-18T11:02:54.510Z,12.10
2022-12-18T11:05:28.746Z,12.40
2022-12-18T11:07:57.182Z,12.80
2022-12-18T11:10:27.402Z,13.20
2022-12-18T11:12:57.558Z,13.70
2022-12-18T11:15:29.139Z,14.10
2022-12-18T11:17:57.087Z,14.50
2022-12-18T11:20:33.946Z,14.70
2022-12-18T11:23:02.612Z,14.90
2022-12-18T11:25:33.246Z,15.10
2022-12-18T11:28:02.708Z,15.40
2022-12-18T11:30:32.662Z,15.50
2022-12-18T11:33:05.438Z,15.70
2022-12-18T11:35:39.545Z,15.90
2022-12-18T11:38:12.563Z,16.10
2022-12-18T11:40:41.902Z,16.10
2022-12-18T11:43:11.906Z,16.00
2022-12-18T11:45:44.142Z,15.60
2022-12-18T11:48:17.340Z,15.40
2022-12-18T11:50:49.417Z,15.40
2022-12-18T11:53:17.758Z,15.70
2022-12-18T11:55:52.437Z,15.90
2022-12-18T11:58:31.388Z,16.10
2022-12-18T12:01:11.868Z,16.20
2022-12-18T12:04:07.783Z,15.80
2022-12-18T12:06:38.857Z,15.60
2022-12-18T12:09:10.772Z,15.30
2022-12-18T12:11:44.763Z,15.00
2022-12-18T12:14:24.003Z,14.60
2022-12-18T12:16:55.628Z,14.20
2022-12-18T12:19:36.983Z,13.90
2022-12-18T12:22:10.962Z,13.80
2022-12-18T12:24:43.481Z,13.50
2022-12-18T12:27:15.832Z,13.30
2022-12-18T12:29:50.435Z,13.20
2022-12-18T12:32:25.031Z,12.90
2022-12-18T12:35:01.774Z,12.90
2022-12-18T12:37:37.333Z,13.30
2022-12-18T12:40:26.827Z,13.80
2022-12-18T12:43:14.021Z,13.50
2022-12-18T12:45:44.801Z,13.10
2022-12-18T12:48:18.460Z,12.80
2022-12-18T12:50:46.492Z,12.60
2022-12-18T12:53:20.262Z,12.50
2022-12-18T12:55:47.948Z,12.30
2022-12-18T12:58:17.834Z,12.30
2022-12-18T13:00:49.228Z,12.30
2022-12-18T13:03:24.502Z,12.20
2022-12-18T13:05:55.902Z,12.10
2022-12-18T13:08:27.509Z,12.00
2022-12-18T13:11:13.809Z,12.00
2022-12-18T13:13:52.825Z,11.90
2022-12-18T13:16:21.308Z,11.90
2022-12-18T13:18:53.952Z,11.90
2022-12-18T13:21:25.437Z,11.90
2022-12-18T13:23:53.258Z,11.70
2022-12-18T13:26:36.849Z,11.60
2022-12-18T13:29:09.708Z,11.70
2022-12-18T13:32:26.299Z,11.90
2022-12-18T13:35:33.162Z,12.10
2022-12-18T13:38:02.624Z,12.20
2022-12-18T13:40:59.042Z,12.20
2022-12-18T13:43:36.331Z,12.20
2022-12-18T13:46:21.895Z,12.20
2022-12-18T13:48:55.481Z,12.20
2022-12-18T13:51:24.256Z,12.20
2022-12-18T13:53:54.843Z,12.20
2022-12-18T13:56:25.137Z,12.10
2022-12-18T13:59:18.542Z,12.10
2022-12-18T14:02:28.006Z,12.10
2022-12-18T14:04:56.538Z,12.00
2022-12-18T14:07:26.206Z,12.00
2022-12-18T14:10:12.562Z,11.90
2022-12-18T14:13:03.195Z,11.90
2022-12-18T14:15:34.285Z,11.90
2022-12-18T14:18:04.400Z,11.80
2022-12-18T14:20:37.034Z,11.80
2022-12-18T14:23:33.641Z,11.80
2022-12-18T14:26:24.749Z,11.80
2022-12-18T14:28:55.075Z,11.70
2022-12-18T14:31:23.992Z,11.70
2022-12-18T14:33:52.671Z,11.70
2022-12-18T14:36:24.656Z,11.60
2022-12-18T14:38:58.379Z,11.60
2022-12-18T14:41:28.922Z,11.60
2022-12-18T14:43:57.548Z,11.60
2022-12-18T14:46:31.336Z,11.60
2022-12-18T14:48:59.906Z,11.50
2022-12-18T14:51:28.071Z,11.50
2022-12-18T14:53:57.209Z,11.40
2022-12-18T14:56:28.297Z,11.40
2022-12-18T14:58:57.658Z,11.40
2022-12-18T15:01:28.417Z,11.30
2022-12-18T15:03:57.130Z,11.30
2022-12-18T15:06:31.294Z,11.30
2022-12-18T15:09:01.043Z,11.30
2022-12-18T15:11:37.156Z,11.20
2022-12-18T15:14:24.319Z,11.20
2022-12-18T15:16:54.548Z,11.20
2022-12-18T15:19:22.753Z,11.10
2022-12-18T15:21:50.844Z,11.20
2022-12-18T15:24:20.287Z,11.10
2022-12-18T15:26:51.280Z,11.10
2022-12-18T15:29:20.935Z,11.10
2022-12-18T15:32:01.136Z,11.00
2022-12-18T15:34:29.327Z,11.10
2022-12-18T15:36:57.919Z,11.00
2022-12-18T15:39:25.858Z,11.00
2022-12-18T15:42:13.008Z,11.00
2022-12-18T15:44:40.773Z,11.00
2022-12-18T15:47:12.727Z,11.00
2022-12-18T15:49:40.726Z,11.00
2022-12-18T15:52:10.665Z,11.00
2022-12-18T15:54:56.037Z,10.90
2022-12-18T15:57:25.629Z,10.90
2022-12-18T15:59:54.747Z,10.90
2022-12-18T16:02:24.658Z,10.90
2022-12-18T16:04:53.153Z,10.90
2022-12-18T16:07:25.627Z,10.90
2022-12-18T16:09:54.358Z,10.90
2022-12-18T16:12:27.477Z,10.90
2022-12-18T16:14:55.773Z,10.80
2022-12-18T16:17:24.361Z,10.80
2022-12-18T16:19:53.453Z,10.80
2022-12-18T16:22:23.746Z,10.80
2022-12-18T16:24:51.807Z,10.80
2022-12-18T16:27:19.760Z,10.80
2022-12-18T16:29:48.910Z,10.80
2022-12-18T16:32:18.052Z,10.80
2022-12-18T16:34:46.564Z,10.80
2022-12-18T16:37:15.254Z,10.80
2022-12-18T16:39:43.786Z,10.70
2022-12-18T16:42:15.549Z,10.70
2022-12-18T16:44:43.913Z,10.70
2022-12-18T16:47:13.417Z,10.70
2022-12-18T16:49:43.435Z,10.70
2022-12-18T16:52:11.219Z,10.60
2022-12-18T16:54:39.008Z,10.60
2022-12-18T16:57:07.411Z,10.60
2022-12-18T16:59:35.322Z,10.60
2022-12-18T17:02:04.135Z,10.60
2022-12-18T17:04:33.805Z,10.60
2022-12-18T17:07:02.000Z,10.60
2022-12-18T17:09:29.937Z,10.60
2022-12-18T17:11:59.674Z,10.60
2022-12-18T17:14:30.543Z,10.60
2022-12-18T17:17:20.250Z,10.60
2022-12-18T17:19:49.183Z,10.60
2022-12-18T17:22:17.039Z,10.60
2022-12-18T17:24:51.547Z,10.60
2022-12-18T17:27:20.014Z,10.60
2022-12-18T17:29:50.010Z,10.60
2022-12-18T17:32:18.907Z,10.60
2022-12-18T17:34:50.189Z,10.60
2022-12-18T17:37:20.068Z,10.60
2022-12-18T17:39:48.202Z,10.60
2022-12-18T17:42:16.911Z,10.60
2022-12-18T17:44:45.024Z,10.60
2022-12-18T17:47:16.316Z,10.60
2022-12-18T17:49:44.564Z,10.60
2022-12-18T17:52:12.854Z,10.60
2022-12-18T17:54:44.593Z,10.60
2022-12-18T17:57:13.108Z,10.60
2022-12-18T17:59:44.072Z,10.60
2022-12-18T18:02:12.617Z,10.60
2022-12-18T18:04:41.746Z,10.60
2022-12-18T18:07:12.289Z,10.60
2022-12-18T18:09:42.646Z,10.60
2022-12-18T18:12:30.524Z,10.60
2022-12-18T18:15:02.664Z,10.60
2022-12-18T18:17:34.910Z,10.60
2022-12-18T18:20:03.999Z,10.60
2022-12-18T18:22:35.541Z,10.60
2022-12-18T18:25:05.876Z,10.60
2022-12-18T18:27:38.520Z,10.60
2022-12-18T18:30:08.248Z,10.60
2022-12-18T18:32:39.647Z,10.60
2022-12-18T18:35:19.368Z,10.60
2022-12-18T18:37:52.769Z,10.60
2022-12-18T18:40:23.671Z,10.60
2022-12-18T18:42:56.045Z,10.60
2022-12-18T18:45:24.482Z,10.60
2022-12-18T18:48:19.028Z,10.60
2022-12-18T18:50:56.968Z,10.60
2022-12-18T18:53:25.151Z,10.60
2022-12-18T18:56:26.118Z,10.60
2022-12-18T18:58:45.919Z,10.60
2022-12-18T19:01:20.823Z,10.60
2022-12-18T19:04:04.199Z,10.60
2022-12-18T19:06:32.455Z,10.60
2022-12-18T19:09:04.211Z,10.50
2022-12-18T19:11:51.331Z,10.50
2022-12-18T19:14:32.945Z,10.50
2022-12-18T19:17:03.759Z,10.50
2022-12-18T19:19:40.326Z,10.50
2022-12-18T19:22:10.517Z,10.50
2022-12-18T19:24:55.144Z,10.50
2022-12-18T19:27:26.230Z,10.50
2022-12-18T19:29:54.389Z,10.50
2022-12-18T19:32:25.870Z,10.50
2022-12-18T19:34:55.089Z,10.50
2022-12-18T19:37:30.160Z,10.50
2022-12-18T19:39:58.630Z,10.50
2022-12-18T19:42:35.224Z,10.50
2022-12-18T19:45:06.409Z,10.50
2022-12-18T19:47:34.718Z,10.50
2022-12-18T19:50:03.219Z,10.50
2022-12-18T19:53:02.051Z,10.50
2022-12-18T19:55:30.762Z,10.50
2022-12-18T19:58:21.429Z,10.50
2022-12-18T20:00:53.512Z,10.50
2022-12-18T20:03:32.781Z,10.50
2022-12-18T20:06:11.602Z,10.50
2022-12-18T20:08:41.262Z,10.50
2022-12-18T20:11:09.751Z,10.50
2022-12-18T20:13:39.788Z,10.50
2022-12-18T20:16:10.760Z,10.50
2022-12-18T20:18:38.987Z,10.50
2022-12-18T20:21:13.616Z,10.50
2022-12-18T20:23:44.644Z,10.50
2022-12-18T20:26:16.099Z,10.40
2022-12-18T20:28:45.862Z,10.50
2022-12-18T20:31:14.257Z,10.50
2022-12-18T20:33:43.131Z,10.50
2022-12-18T20:36:15.339Z,10.50
2022-12-18T20:38:44.679Z,10.50
2022-12-18T20:41:17.183Z,10.50
2022-12-18T20:43:47.653Z,10.50
2022-12-18T20:46:17.365Z,10.40
2022-12-18T20:48:45.666Z,10.50
2022-12-18T20:51:14.382Z,10.50
2022-12-18T20:53:42.663Z,10.50
2022-12-18T20:56:12.139Z,10.50
2022-12-18T20:58:45.846Z,10.50
2022-12-18T21:01:16.757Z,10.50
2022-12-18T21:03:46.021Z,10.50
2022-12-18T21:06:14.433Z,10.50
2022-12-18T21:08:42.586Z,10.50
2022-12-18T21:11:35.382Z,10.50
2022-12-18T21:14:03.233Z,10.50
2022-12-18T21:16:32.568Z,10.50
2022-12-18T21:19:00.600Z,10.50
2022-12-18T21:21:29.037Z,10.50
2022-12-18T21:23:57.223Z,10.50
2022-12-18T21:26:25.908Z,10.50
2022-12-18T21:28:54.336Z,10.50
2022-12-18T21:31:23.413Z,10.50
2022-12-18T21:33:56.479Z,10.50
2022-12-18T21:36:36.335Z,10.50
2022-12-18T21:39:04.984Z,10.50
2022-12-18T21:41:50.684Z,10.50
2022-12-18T21:44:22.709Z,10.50
2022-12-18T21:46:56.924Z,10.50
2022-12-18T21:49:27.638Z,10.50
2022-12-18T21:51:57.838Z,10.50
2022-12-18T21:54:26.307Z,10.50
2022-12-18T21:56:55.485Z,10.50
2022-12-18T21:59:27.113Z,10.50
2022-12-18T22:01:56.541Z,10.60
2022-12-18T22:04:24.956Z,10.60
2022-12-18T22:06:55.263Z,10.60
2022-12-18T22:09:24.083Z,10.60
2022-12-18T22:11:52.557Z,10.60
2022-12-18T22:14:20.462Z,10.60
2022-12-18T22:16:48.288Z,10.60
2022-12-18T22:19:18.007Z,10.60
2022-12-18T22:21:46.961Z,10.60
2022-12-18T22:24:17.312Z,10.60
2022-12-18T22:26:45.299Z,10.60
2022-12-18T22:29:37.547Z,10.60
2022-12-18T22:32:05.719Z,10.60
2022-12-18T22:34:36.562Z,10.60
2022-12-18T22:37:04.795Z,10.60
2022-12-18T22:39:34.315Z,10.60
2022-12-18T22:42:02.498Z,10.60
2022-12-18T22:44:30.825Z,10.60
2022-12-18T22:47:05.343Z,10.60
2022-12-18T22:49:35.658Z,10.60
2022-12-18T22:52:03.872Z,10.60
2022-12-18T22:54:32.984Z,10.60
2022-12-18T22:57:00.767Z,10.60
2022-12-18T22:59:29.104Z,10.60
2022-12-18T23:01:58.821Z,10.60
2022-12-18T23:04:35.916Z,10.70
2022-12-18T23:07:04.817Z,10.70
2022-12-18T23:09:34.369Z,10.60
2022-12-18T23:12:02.465Z,10.70
2022-12-18T23:14:30.530Z,10.60
2022-12-18T23:16:58.601Z,10.60
2022-12-18T23:19:26.549Z,10.60
2022-12-18T23:21:58.252Z,10.70
2022-12-18T23:24:26.554Z,10.70
2022-12-18T23:26:55.782Z,10.70
2022-12-18T23:29:23.568Z,10.70
2022-12-18T23:31:51.398Z,10.60
2022-12-18T23:34:19.204Z,10.70
2022-12-18T23:36:49.173Z,10.70
2022-12-18T23:39:29.076Z,10.70
2022-12-18T23:41:59.548Z,10.70
2022-12-18T23:44:27.380Z,10.70
2022-12-18T23:46:55.544Z,10.70
2022-12-18T23:49:23.747Z,10.70
2022-12-18T23:51:51.531Z,10.70
2022-12-18T23:54:25.290Z,10.70
2022-12-18T23:57:02.398Z,10.70
2022-12-18T23:59:30.141Z,10.70
